Time;durP1;ratioP1;P1;durP2;ratioP2;P2;SDS_P1;SDS_P2;PMS_P1;PMS_P2;Temp;Humidity;BMP_temperature;BMP_pressure;BME280_temperature;BME280_humidity;BME280_pressure;Samples;Min_cycle;Max_cycle;Signal;HPM_P1;HPM_P2
2023/08/20 00:00:58;;;;;;;12.23;9.52;;;;;;;20.43;100.00;98646.69;3199370;23;20025;-91
2023/08/20 00:02:36;;;;;;;12.45;9.15;;;;;;;20.57;100.00;98651.94;3193899;23;20021;-91
2023/08/20 00:03:52;;;;;;;10.98;9.13;;;;;;;20.67;100.00;98648.69;3199622;23;20346;-92
2023/08/20 00:05:09;;;;;;;12.73;8.90;;;;;;;20.63;100.00;98655.19;3194921;23;20687;-91
2023/08/20 00:06:25;;;;;;;11.93;9.35;;;;;;;20.52;100.00;98650.53;3194123;23;20013;-94
2023/08/20 00:07:41;;;;;;;14.73;10.00;;;;;;;20.52;100.00;98653.19;3199966;23;20055;-94
2023/08/20 00:08:57;;;;;;;14.18;9.05;;;;;;;20.54;100.00;98646.00;3194573;23;20028;-93
2023/08/20 00:10:12;;;;;;;12.18;9.63;;;;;;;20.53;100.00;98657.56;3199474;23;20330;-90
2023/08/20 00:11:28;;;;;;;11.10;9.10;;;;;;;20.55;100.00;98648.53;3193491;23;20032;-90
2023/08/20 00:12:44;;;;;;;10.32;9.13;;;;;;;20.57;100.00;98653.78;3194124;23;20080;-91
2023/08/20 00:13:59;;;;;;;9.93;8.82;;;;;;;20.53;100.00;98661.09;3194729;23;20145;-91
2023/08/20 00:15:15;;;;;;;10.60;8.90;;;;;;;20.52;100.00;98653.19;3198925;23;20017;-91
2023/08/20 00:16:31;;;;;;;10.30;8.48;;;;;;;20.51;100.00;98647.06;3189489;23;20013;-91
2023/08/20 00:17:47;;;;;;;12.77;9.25;;;;;;;20.26;100.00;98653.97;3199064;23;20457;-93
2023/08/20 00:19:03;;;;;;;11.60;9.18;;;;;;;20.15;100.00;98654.66;3200332;23;20536;-91
2023/08/20 00:20:20;;;;;;;12.07;9.30;;;;;;;20.15;100.00;98648.47;3199126;23;20048;-92
2023/08/20 00:21:41;;;;;;;11.90;8.75;;;;;;;20.06;100.00;98644.63;3190506;23;20021;-91
2023/08/20 00:22:56;;;;;;;13.07;8.80;;;;;;;20.19;100.00;98647.34;3199862;23;20075;-91
2023/08/20 00:24:12;;;;;;;11.57;8.52;;;;;;;20.23;100.00;98651.50;3199202;23;20761;-91
2023/08/20 00:25:28;;;;;;;13.73;9.05;;;;;;;20.26;100.00;98653.13;3194114;23;20021;-91
2023/08/20 00:26:44;;;;;;;12.95;8.93;;;;;;;20.24;100.00;98652.34;3198974;23;20096;-92
2023/08/20 00:28:00;;;;;;;10.90;8.88;;;;;;;20.21;100.00;98652.56;3185028;23;20070;-92
2023/08/20 00:29:15;;;;;;;12.77;9.45;;;;;;;20.24;100.00;98655.00;3190982;23;20050;-91
2023/08/20 00:30:31;;;;;;;12.48;9.43;;;;;;;20.21;100.00;98657.88;3200171;23;20083;-91
2023/08/20 00:31:46;;;;;;;11.00;8.98;;;;;;;20.13;100.00;98658.38;3200789;23;20446;-91
2023/08/20 00:33:02;;;;;;;13.30;8.60;;;;;;;20.06;100.00;98659.72;3200764;23;20032;-91
2023/08/20 00:34:17;;;;;;;11.95;9.10;;;;;;;20.07;100.00;98654.28;3201391;23;20176;-91
2023/08/20 00:35:33;;;;;;;9.88;8.35;;;;;;;20.10;100.00;98659.41;3200763;23;20029;-91
2023/08/20 00:36:49;;;;;;;10.50;7.88;;;;;;;20.16;100.00;98664.34;3199851;23;20025;-90
2023/08/20 00:38:05;;;;;;;13.05;9.18;;;;;;;20.13;100.00;98661.03;3194977;23;20511;-91
2023/08/20 00:39:21;;;;;;;11.73;9.60;;;;;;;19.98;100.00;98665.53;3200161;23;20159;-91
2023/08/20 00:40:37;;;;;;;12.40;10.00;;;;;;;20.07;100.00;98669.41;3209890;23;20021;-91
2023/08/20 00:41:52;;;;;;;11.23;8.90;;;;;;;20.07;100.00;98664.09;3213531;23;20036;-89
2023/08/20 00:43:08;;;;;;;9.75;8.38;;;;;;;20.03;100.00;98669.56;3209992;23;20470;-91
2023/08/20 00:44:23;;;;;;;10.18;8.98;;;;;;;19.90;100.00;98669.47;3201048;23;20020;-92
2023/08/20 00:45:41;;;;;;;10.25;9.15;;;;;;;19.89;100.00;98672.22;3201089;23;20033;-92
2023/08/20 00:46:58;;;;;;;11.88;8.75;;;;;;;19.87;100.00;98669.69;3195909;23;20049;-91
2023/08/20 00:48:15;;;;;;;11.13;9.00;;;;;;;19.85;100.00;98665.41;3201152;23;20747;-90
2023/08/20 00:49:32;;;;;;;12.38;8.98;;;;;;;19.88;100.00;98671.38;3201363;23;20036;-91
2023/08/20 00:50:48;;;;;;;11.32;9.10;;;;;;;19.82;100.00;98661.13;3200517;23;20032;-91
2023/08/20 00:52:04;;;;;;;13.13;9.15;;;;;;;19.88;100.00;98665.19;3200174;23;20047;-91
2023/08/20 00:53:19;;;;;;;10.35;8.80;;;;;;;19.81;100.00;98662.06;3195646;23;20498;-91
2023/08/20 00:54:36;;;;;;;10.98;9.10;;;;;;;19.61;100.00;98673.94;3200860;23;20028;-91
2023/08/20 00:55:52;;;;;;;11.65;9.05;;;;;;;19.65;100.00;98670.16;3195694;23;20020;-91
2023/08/20 00:57:08;;;;;;;11.70;9.18;;;;;;;19.67;100.00;98665.59;3200448;23;20024;-91
2023/08/20 00:58:23;;;;;;;12.60;8.73;;;;;;;19.64;100.00;98673.78;3200964;23;20016;-90
2023/08/20 00:59:40;;;;;;;10.52;8.68;;;;;;;19.68;100.00;98666.44;3199634;23;20107;-91
2023/08/20 01:00:56;;;;;;;12.20;9.07;;;;;;;19.64;100.00;98667.59;3194953;23;20067;-91
2023/08/20 01:02:11;;;;;;;13.73;8.68;;;;;;;19.69;100.00;98671.66;3195186;23;20095;-91
2023/08/20 01:03:28;;;;;;;13.48;9.50;;;;;;;19.71;100.00;98674.25;3190489;23;20025;-92
2023/08/20 01:04:46;;;;;;;11.48;8.75;;;;;;;19.69;100.00;98666.38;3185363;23;20025;-91
2023/08/20 01:06:23;;;;;;;11.27;8.80;;;;;;;19.74;100.00;98658.09;3200180;23;20499;-91
2023/08/20 01:07:38;;;;;;;10.95;8.43;;;;;;;19.69;100.00;98662.84;3199394;23;20021;-93
2023/08/20 01:09:03;;;;;;;11.25;9.20;;;;;;;19.60;100.00;98661.59;3200121;23;20027;-92
2023/08/20 01:10:31;;;;;;;9.50;8.45;;;;;;;19.73;100.00;98648.44;3200380;23;20021;-92
2023/08/20 01:11:54;;;;;;;11.60;8.77;;;;;;;19.71;100.00;98663.63;3204469;23;20021;-92
2023/08/20 01:13:10;;;;;;;10.85;8.88;;;;;;;19.59;100.00;98655.47;3216241;23;20024;-91
2023/08/20 01:14:26;;;;;;;10.65;8.85;;;;;;;19.66;100.00;98668.34;3199204;23;20075;-91
2023/08/20 01:15:42;;;;;;;11.65;8.85;;;;;;;19.66;100.00;98658.59;3206358;23;20020;-91
2023/08/20 01:16:58;;;;;;;10.50;8.75;;;;;;;19.69;100.00;98660.19;3216267;23;20017;-91
2023/08/20 01:18:13;;;;;;;11.48;9.38;;;;;;;19.66;100.00;98660.38;3199540;23;20025;-91
2023/08/20 01:19:29;;;;;;;11.48;8.57;;;;;;;19.61;100.00;98664.19;3206349;23;20020;-91
2023/08/20 01:21:04;;;;;;;10.73;9.23;;;;;;;19.42;100.00;98664.47;3216018;23;20020;-91
2023/08/20 01:22:44;;;;;;;13.02;9.25;;;;;;;19.15;100.00;98659.88;3215997;23;20106;-91
2023/08/20 01:24:28;;;;;;;11.00;8.75;;;;;;;19.10;100.00;98655.78;3199566;23;20047;-90
2023/08/20 01:26:15;;;;;;;10.18;8.45;;;;;;;19.31;100.00;98654.50;3196703;23;20040;-90
2023/08/20 01:28:08;;;;;;;12.65;9.27;;;;;;;19.48;100.00;98660.56;3196181;23;20061;-91
2023/08/20 01:29:25;;;;;;;11.67;9.70;;;;;;;19.29;100.00;98658.19;3198030;23;20048;-91
2023/08/20 01:30:43;;;;;;;11.93;9.15;;;;;;;19.44;100.00;98659.06;3206382;23;20765;-91
2023/08/20 01:32:00;;;;;;;14.07;10.32;;;;;;;19.55;100.00;98661.06;3194585;23;20124;-91
2023/08/20 01:33:16;;;;;;;13.35;10.18;;;;;;;19.47;100.00;98653.56;3206459;23;20488;-91
2023/08/20 01:34:31;;;;;;;12.38;10.38;;;;;;;19.41;100.00;98656.56;3199674;23;20369;-90
2023/08/20 01:35:47;;;;;;;13.43;10.30;;;;;;;19.40;100.00;98660.19;3200817;23;20037;-90
2023/08/20 01:37:03;;;;;;;13.00;10.02;;;;;;;19.44;100.00;98662.56;3199396;23;20579;-91
2023/08/20 01:38:18;;;;;;;12.38;9.73;;;;;;;19.59;100.00;98660.78;3206138;23;20016;-90
2023/08/20 01:39:34;;;;;;;13.02;10.10;;;;;;;19.69;100.00;98657.53;3193713;23;20024;-90
2023/08/20 01:40:50;;;;;;;11.68;9.82;;;;;;;19.75;100.00;98665.13;3190066;23;20021;-91
2023/08/20 01:42:06;;;;;;;12.68;9.65;;;;;;;19.85;100.00;98666.25;3206017;23;20027;-91
2023/08/20 01:43:21;;;;;;;11.68;9.75;;;;;;;19.87;100.00;98659.06;3199451;23;20083;-90
2023/08/20 01:44:37;;;;;;;11.75;9.48;;;;;;;19.89;100.00;98665.13;3205941;23;20415;-90
2023/08/20 01:45:53;;;;;;;10.77;9.55;;;;;;;19.90;100.00;98668.59;3216001;23;20802;-92
2023/08/20 01:47:09;;;;;;;10.13;9.05;;;;;;;19.94;100.00;98666.66;3210806;23;20025;-90
2023/08/20 01:48:24;;;;;;;11.20;9.73;;;;;;;19.97;100.00;98666.44;3215390;23;20016;-92
2023/08/20 01:49:40;;;;;;;11.50;9.35;;;;;;;20.00;100.00;98668.94;3194265;23;20029;-91
2023/08/20 01:50:55;;;;;;;12.85;10.45;;;;;;;20.02;100.00;98677.66;3205967;23;20209;-91
2023/08/20 01:52:12;;;;;;;13.05;10.25;;;;;;;20.08;100.00;98671.94;3193991;23;20025;-90
2023/08/20 01:53:27;;;;;;;12.25;9.15;;;;;;;20.11;100.00;98677.06;3206102;23;20380;-91
2023/08/20 01:54:43;;;;;;;11.57;10.00;;;;;;;20.08;100.00;98674.59;3211031;23;20035;-92
2023/08/20 01:55:58;;;;;;;15.38;10.27;;;;;;;20.11;100.00;98676.22;3199486;23;20108;-91
2023/08/20 01:57:14;;;;;;;12.43;9.50;;;;;;;20.17;100.00;98675.81;3206233;23;20020;-92
2023/08/20 01:58:32;;;;;;;14.35;9.93;;;;;;;20.17;100.00;98679.34;3216140;23;20095;-90
2023/08/20 01:59:48;;;;;;;14.27;9.77;;;;;;;20.23;100.00;98682.53;3199455;23;20106;-91
2023/08/20 02:01:03;;;;;;;14.27;9.57;;;;;;;20.21;100.00;98681.78;3199550;23;20791;-92
2023/08/20 02:02:20;;;;;;;12.82;9.52;;;;;;;20.22;100.00;98672.88;3201250;23;20024;-91
2023/08/20 02:03:36;;;;;;;12.48;10.20;;;;;;;20.21;100.00;98681.78;3215641;23;20046;-91
2023/08/20 02:04:52;;;;;;;11.45;9.65;;;;;;;20.17;100.00;98676.69;3216017;23;20106;-90
2023/08/20 02:06:08;;;;;;;12.93;9.98;;;;;;;20.11;100.00;98669.09;3216088;23;20028;-92
2023/08/20 02:07:23;;;;;;;14.20;9.95;;;;;;;20.13;100.00;98677.84;3199434;23;20129;-91
2023/08/20 02:08:39;;;;;;;13.90;10.48;;;;;;;20.12;100.00;98678.78;3185301;23;20028;-91
2023/08/20 02:09:54;;;;;;;13.73;10.32;;;;;;;20.19;100.00;98673.94;3205841;23;20492;-91
2023/08/20 02:11:10;;;;;;;11.35;9.95;;;;;;;20.17;100.00;98671.38;3193560;23;20028;-90
2023/08/20 02:12:27;;;;;;;13.70;10.70;;;;;;;20.26;100.00;98677.06;3185597;23;20025;-92
2023/08/20 02:13:42;;;;;;;11.52;9.70;;;;;;;20.22;100.00;98672.88;3201960;23;20024;-91
2023/08/20 02:14:58;;;;;;;14.10;9.93;;;;;;;20.21;100.00;98673.81;3199077;23;20043;-91
2023/08/20 02:16:16;;;;;;;15.27;10.13;;;;;;;20.24;100.00;98681.59;3206537;23;20025;-90
2023/08/20 02:17:31;;;;;;;12.07;9.73;;;;;;;20.24;100.00;98671.81;3215993;23;20059;-91
2023/08/20 02:18:47;;;;;;;12.70;9.10;;;;;;;20.24;100.00;98670.97;3211284;23;20021;-91
2023/08/20 02:20:04;;;;;;;11.73;9.43;;;;;;;20.24;100.00;98668.28;3199282;23;20095;-91
2023/08/20 02:21:20;;;;;;;13.07;9.50;;;;;;;20.27;100.00;98673.44;3206324;23;20020;-91
2023/08/20 02:22:36;;;;;;;11.07;9.13;;;;;;;20.27;100.00;98673.44;3193972;23;20021;-91
2023/08/20 02:23:51;;;;;;;11.48;9.38;;;;;;;20.29;100.00;98671.53;3205887;23;20467;-91
2023/08/20 02:25:07;;;;;;;12.07;8.85;;;;;;;20.28;100.00;98673.31;3199400;23;20025;-90
2023/08/20 02:26:23;;;;;;;12.38;9.30;;;;;;;20.31;100.00;98672.28;3206139;23;20024;-91
2023/08/20 02:27:38;;;;;;;11.15;9.65;;;;;;;20.29;100.00;98663.56;3215676;23;20345;-90
2023/08/20 02:28:54;;;;;;;11.05;9.25;;;;;;;20.29;100.00;98666.22;3215418;23;20021;-89
2023/08/20 02:30:13;;;;;;;10.88;9.45;;;;;;;20.32;100.00;98666.88;3215853;23;20059;-90
2023/08/20 02:31:29;;;;;;;10.85;9.52;;;;;;;20.35;100.00;98668.47;3215555;23;20025;-91
2023/08/20 02:32:44;;;;;;;13.07;9.23;;;;;;;20.25;100.00;98670.00;3216311;23;20075;-91
2023/08/20 02:34:03;;;;;;;12.02;9.23;;;;;;;20.19;100.00;98671.28;3215932;23;20024;-90
2023/08/20 02:35:21;;;;;;;10.55;8.40;;;;;;;20.24;100.00;98670.97;3210705;23;20047;-91
2023/08/20 02:36:37;;;;;;;12.75;9.40;;;;;;;20.27;100.00;98668.13;3210272;23;20044;-90
2023/08/20 02:37:52;;;;;;;10.38;9.23;;;;;;;20.32;100.00;98671.31;3216032;23;20529;-91
2023/08/20 02:39:08;;;;;;;11.52;9.40;;;;;;;20.30;100.00;98663.44;3215832;23;20024;-90
2023/08/20 02:40:23;;;;;;;12.52;9.23;;;;;;;20.39;100.00;98669.97;3210679;23;20020;-91
2023/08/20 02:41:39;;;;;;;12.43;9.85;;;;;;;20.42;100.00;98666.25;3198908;23;20089;-90
2023/08/20 02:42:55;;;;;;;11.95;9.38;;;;;;;20.39;100.00;98672.63;3205939;23;20043;-91
2023/08/20 02:44:10;;;;;;;12.43;9.65;;;;;;;20.29;100.00;98669.72;3211242;23;20353;-90
2023/08/20 02:45:26;;;;;;;12.65;9.70;;;;;;;20.23;100.00;98670.13;3199494;23;20044;-90
2023/08/20 02:46:44;;;;;;;15.45;9.40;;;;;;;20.11;100.00;98670.91;3205519;23;20372;-91
2023/08/20 02:48:00;;;;;;;10.77;9.02;;;;;;;20.10;100.00;98674.50;3210797;23;20020;-91
2023/08/20 02:49:15;;;;;;;12.40;9.27;;;;;;;20.08;100.00;98671.09;3215653;23;20024;-91
2023/08/20 02:50:31;;;;;;;11.93;9.45;;;;;;;20.18;100.00;98673.06;3210578;23;20020;-91
2023/08/20 02:51:47;;;;;;;11.50;9.48;;;;;;;20.04;100.00;98673.97;3210643;23;20028;-90
2023/08/20 02:53:03;;;;;;;11.40;9.18;;;;;;;20.11;100.00;98677.06;3215544;23;20087;-92
2023/08/20 02:54:19;;;;;;;14.02;8.88;;;;;;;20.29;100.00;98682.16;3215582;23;20457;-90
2023/08/20 02:55:35;;;;;;;12.77;9.63;;;;;;;20.34;100.00;98682.72;3199125;23;20021;-90
2023/08/20 02:56:51;;;;;;;13.18;9.82;;;;;;;20.42;100.00;98680.44;3205767;23;20394;-92
2023/08/20 02:58:09;;;;;;;11.63;9.68;;;;;;;20.44;100.00;98682.97;3198917;23;20028;-91
2023/08/20 02:59:25;;;;;;;11.73;9.82;;;;;;;20.40;100.00;98690.31;3206347;23;20027;-89
2023/08/20 03:00:42;;;;;;;12.57;9.73;;;;;;;20.31;100.00;98691.72;3215445;23;20024;-91
2023/08/20 03:01:58;;;;;;;11.48;9.48;;;;;;;20.33;100.00;98688.97;3212063;23;20020;-91
2023/08/20 03:03:13;;;;;;;13.95;9.13;;;;;;;20.40;100.00;98685.00;3193762;23;20579;-91
2023/08/20 03:04:29;;;;;;;13.00;10.30;;;;;;;20.45;100.00;98679.34;3205771;23;20020;-91
2023/08/20 03:05:44;;;;;;;12.88;9.85;;;;;;;20.51;100.00;98688.75;3215298;23;20021;-90
2023/08/20 03:07:00;;;;;;;13.70;10.27;;;;;;;20.40;100.00;98687.66;3216078;23;20318;-91
2023/08/20 03:08:19;;;;;;;12.65;10.35;;;;;;;20.35;100.00;98683.59;3222924;23;20024;-91
2023/08/20 03:09:34;;;;;;;13.50;10.07;;;;;;;20.23;100.00;98682.53;3229115;23;20076;-90
2023/08/20 03:10:49;;;;;;;10.80;9.10;;;;;;;20.10;100.00;98685.16;3223354;23;20024;-90
2023/08/20 03:12:06;;;;;;;11.77;9.90;;;;;;;20.06;100.00;98687.13;3196984;23;20079;-90
2023/08/20 03:13:21;;;;;;;11.40;10.20;;;;;;;20.03;100.00;98684.69;3206042;23;20050;-91
2023/08/20 03:14:37;;;;;;;12.23;10.35;;;;;;;19.99;100.00;98684.00;3215506;23;20020;-90
2023/08/20 03:15:52;;;;;;;11.07;9.85;;;;;;;19.99;100.00;98678.69;3216182;23;20020;-90
2023/08/20 03:17:08;;;;;;;14.90;10.60;;;;;;;20.03;100.00;98682.84;3216199;23;20017;-91
2023/08/20 03:18:24;;;;;;;11.60;9.75;;;;;;;19.97;100.00;98680.59;3216194;23;20023;-91
2023/08/20 03:19:55;;;;;;;13.05;9.65;;;;;;;19.96;100.00;98678.03;3199299;23;20020;-92
2023/08/20 03:21:10;;;;;;;11.32;9.80;;;;;;;19.74;100.00;98682.84;3203964;23;20491;-91
2023/08/20 03:22:27;;;;;;;10.50;9.32;;;;;;;19.74;100.00;98682.00;3215398;23;20029;-91
2023/08/20 03:23:42;;;;;;;12.32;10.15;;;;;;;19.86;100.00;98689.22;3193881;23;20480;-91
2023/08/20 03:24:58;;;;;;;12.43;9.98;;;;;;;20.03;100.00;98684.69;3189784;23;20052;-91
2023/08/20 03:26:13;;;;;;;12.02;9.82;;;;;;;19.96;100.00;98680.69;3204945;23;20025;-90
2023/08/20 03:27:29;;;;;;;12.50;10.43;;;;;;;19.92;100.00;98676.50;3193589;23;20020;-90
2023/08/20 03:28:44;;;;;;;14.15;9.85;;;;;;;19.95;100.00;98681.63;3199031;23;20353;-91
2023/08/20 03:30:01;;;;;;;13.30;10.32;;;;;;;19.94;100.00;98683.47;3205442;23;20024;-91
2023/08/20 03:31:16;;;;;;;12.95;10.45;;;;;;;20.07;100.00;98680.03;3198974;23;20032;-91
2023/08/20 03:32:32;;;;;;;11.98;9.15;;;;;;;20.15;100.00;98675.94;3205606;23;20036;-93
2023/08/20 03:33:48;;;;;;;11.93;9.85;;;;;;;20.22;100.00;98673.72;3215436;23;20070;-90
2023/08/20 03:35:04;;;;;;;12.05;9.63;;;;;;;20.23;100.00;98677.22;3215586;23;20432;-91
2023/08/20 03:36:20;;;;;;;11.75;9.52;;;;;;;20.30;100.00;98673.25;3199304;23;20539;-91
2023/08/20 03:37:36;;;;;;;11.15;9.52;;;;;;;20.29;100.00;98668.88;3185025;23;20362;-91
2023/08/20 03:38:51;;;;;;;12.38;10.00;;;;;;;20.37;100.00;98677.19;3206114;23;20027;-91
2023/08/20 03:40:07;;;;;;;11.70;9.68;;;;;;;20.40;100.00;98673.50;3210890;23;20495;-92
2023/08/20 03:41:23;;;;;;;13.32;9.48;;;;;;;20.11;100.00;98676.22;3199623;23;20025;-92
2023/08/20 03:42:39;;;;;;;10.80;9.40;;;;;;;20.27;100.00;98681.41;3210724;23;20024;-91
2023/08/20 03:43:54;;;;;;;11.23;9.30;;;;;;;20.15;100.00;98675.94;3223267;23;20099;-91
2023/08/20 03:45:10;;;;;;;12.50;9.77;;;;;;;20.36;100.00;98683.47;3224091;23;20408;-92
2023/08/20 03:46:25;;;;;;;10.82;9.48;;;;;;;20.42;100.00;98675.09;3207472;23;20017;-91
2023/08/20 03:47:44;;;;;;;13.13;9.38;;;;;;;20.37;100.00;98685.16;3209279;23;20083;-93
2023/08/20 03:48:59;;;;;;;11.45;9.98;;;;;;;20.41;100.00;98678.72;3198767;23;20028;-92
2023/08/20 03:50:15;;;;;;;14.55;9.95;;;;;;;20.44;100.00;98683.84;3205976;23;20032;-94
2023/08/20 03:51:30;;;;;;;12.27;9.48;;;;;;;20.57;100.00;98680.38;3215173;23;20039;-95
2023/08/20 03:52:46;;;;;;;11.57;9.75;;;;;;;20.60;100.00;98677.50;3216062;23;20110;-92
2023/08/20 03:54:02;;;;;;;12.43;9.48;;;;;;;20.57;100.00;98677.72;3215800;23;20021;-91
2023/08/20 03:55:18;;;;;;;11.07;9.50;;;;;;;20.57;100.00;98680.38;3215814;23;20020;-92
2023/08/20 03:56:33;;;;;;;12.27;9.52;;;;;;;20.62;100.00;98680.06;3199135;23;20031;-90
2023/08/20 03:57:49;;;;;;;13.93;9.93;;;;;;;20.60;100.00;98681.03;3206027;23;20345;-90
2023/08/20 03:59:05;;;;;;;11.18;9.30;;;;;;;20.60;100.00;98680.16;3193883;23;20173;-92
2023/08/20 04:00:20;;;;;;;11.93;9.05;;;;;;;20.59;100.00;98681.97;3204767;23;20024;-93
2023/08/20 04:01:36;;;;;;;11.18;9.95;;;;;;;20.57;100.00;98681.22;3212650;23;20020;-92
2023/08/20 04:02:52;;;;;;;13.90;9.55;;;;;;;20.52;100.00;98683.31;3215226;23;20436;-93
2023/08/20 04:04:08;;;;;;;12.73;9.10;;;;;;;20.51;100.00;98680.75;3215686;23;20024;-92
2023/08/20 04:05:23;;;;;;;11.02;9.20;;;;;;;20.55;100.00;98683.13;3215436;23;20020;-93
2023/08/20 04:06:39;;;;;;;11.10;9.88;;;;;;;20.62;100.00;98686.22;3199109;23;20528;-93
2023/08/20 04:07:55;;;;;;;13.38;9.55;;;;;;;20.66;100.00;98679.75;3184374;23;20017;-93
2023/08/20 04:09:10;;;;;;;12.52;9.60;;;;;;;20.68;100.00;98685.84;3189738;23;20091;-92
2023/08/20 04:10:26;;;;;;;13.23;9.77;;;;;;;20.65;100.00;98686.03;3205195;23;20099;-92
2023/08/20 04:11:41;;;;;;;11.25;9.25;;;;;;;20.63;100.00;98684.44;3214022;23;20021;-92
2023/08/20 04:12:58;;;;;;;13.18;10.18;;;;;;;20.63;100.00;98684.44;3198871;23;20052;-93
2023/08/20 04:14:14;;;;;;;11.25;9.02;;;;;;;20.64;100.00;98686.16;3200487;23;20500;-92
2023/08/20 04:15:29;;;;;;;11.77;9.90;;;;;;;20.52;100.00;98685.13;3214876;23;20021;-93
2023/08/20 04:16:45;;;;;;;12.85;10.52;;;;;;;20.34;100.00;98689.84;3210453;23;20012;-92
2023/08/20 04:18:01;;;;;;;12.75;9.40;;;;;;;20.28;100.00;98688.44;3216067;23;20055;-93
2023/08/20 04:19:17;;;;;;;11.25;9.40;;;;;;;20.31;100.00;98677.59;3215307;23;20040;-94
2023/08/20 04:20:32;;;;;;;12.05;10.02;;;;;;;20.32;100.00;98684.63;3210093;23;20074;-92
2023/08/20 04:21:48;;;;;;;12.88;10.23;;;;;;;20.24;100.00;98693.09;3210133;23;20591;-92
2023/08/20 04:23:04;;;;;;;12.90;10.38;;;;;;;20.21;100.00;98689.78;3199025;23;20036;-92
2023/08/20 04:24:19;;;;;;;12.00;9.82;;;;;;;20.10;100.00;98688.63;3205148;23;20021;-92
2023/08/20 04:25:35;;;;;;;11.77;9.60;;;;;;;20.19;100.00;98687.22;3193844;23;20350;-91
2023/08/20 04:26:50;;;;;;;11.32;9.23;;;;;;;20.34;100.00;98690.69;3184240;23;20091;-92
2023/08/20 04:28:06;;;;;;;12.93;10.60;;;;;;;20.43;100.00;98694.56;3189474;23;20625;-92
2023/08/20 04:29:22;;;;;;;13.00;9.52;;;;;;;20.53;100.00;98684.16;3189393;23;20024;-93
2023/08/20 04:30:37;;;;;;;14.65;10.25;;;;;;;20.57;100.00;98693.66;3184346;23;20471;-92
2023/08/20 04:31:53;;;;;;;12.85;9.45;;;;;;;20.55;100.00;98690.25;3204955;23;20028;-92
2023/08/20 04:33:09;;;;;;;14.60;9.70;;;;;;;20.59;100.00;98694.41;3215170;23;20028;-92
2023/08/20 04:34:24;;;;;;;11.40;9.75;;;;;;;20.63;100.00;98698.56;3193395;23;20021;-93
2023/08/20 04:35:40;;;;;;;13.68;9.88;;;;;;;20.63;100.00;98698.56;3189257;23;20017;-92
2023/08/20 04:36:55;;;;;;;12.23;9.48;;;;;;;20.66;100.00;98693.03;3204620;23;20016;-92
2023/08/20 04:38:11;;;;;;;10.85;9.52;;;;;;;20.74;100.00;98693.41;3215105;23;20425;-92
2023/08/20 04:39:27;;;;;;;12.20;9.60;;;;;;;20.70;100.00;98699.91;3214712;23;20287;-92
2023/08/20 04:40:45;;;;;;;10.95;9.65;;;;;;;20.69;100.00;98703.50;3198811;23;20072;-92
2023/08/20 04:42:01;;;;;;;13.98;9.75;;;;;;;20.74;100.00;98703.19;3200287;23;20100;-91
2023/08/20 04:43:16;;;;;;;10.90;9.30;;;;;;;20.73;100.00;98699.69;3214922;23;20031;-92
2023/08/20 04:44:32;;;;;;;13.48;9.52;;;;;;;20.75;100.00;98700.44;3215286;23;20027;-92
2023/08/20 04:45:49;;;;;;;11.63;9.80;;;;;;;20.77;100.00;98702.13;3215015;23;20020;-92
2023/08/20 04:47:04;;;;;;;14.10;10.13;;;;;;;20.80;100.00;98699.25;3215314;23;20016;-92
2023/08/20 04:48:20;;;;;;;10.93;9.55;;;;;;;20.79;100.00;98703.75;3215141;23;20037;-89
2023/08/20 04:49:36;;;;;;;11.85;9.55;;;;;;;20.82;100.00;98703.56;3198834;23;20357;-89
2023/08/20 04:50:51;;;;;;;10.07;8.80;;;;;;;20.84;100.00;98704.31;3204739;23;20353;-89
2023/08/20 04:52:07;;;;;;;11.00;9.52;;;;;;;20.87;100.00;98705.94;3215114;23;20353;-90
2023/08/20 04:53:22;;;;;;;11.75;9.38;;;;;;;20.82;100.00;98710.72;3214966;23;20082;-90
2023/08/20 04:54:38;;;;;;;16.55;9.77;;;;;;;20.89;100.00;98709.34;3209739;23;20021;-92
2023/08/20 04:55:53;;;;;;;13.20;10.05;;;;;;;20.88;100.00;98707.63;3214845;23;20242;-89
2023/08/20 04:57:09;;;;;;;11.00;9.30;;;;;;;20.82;100.00;98708.06;3214879;23;20075;-90
2023/08/20 04:58:25;;;;;;;14.30;9.70;;;;;;;20.87;100.00;98705.94;3196784;23;20017;-90
2023/08/20 04:59:44;;;;;;;11.57;10.13;;;;;;;20.96;100.00;98715.97;3204649;23;20024;-90
2023/08/20 05:01:00;;;;;;;14.35;10.48;;;;;;;21.00;100.00;98711.28;3210020;23;20474;-90
2023/08/20 05:02:15;;;;;;;13.48;10.00;;;;;;;21.04;100.00;98715.47;3210218;23;20025;-91
2023/08/20 05:03:31;;;;;;;13.98;10.32;;;;;;;21.00;100.00;98713.94;3215369;23;20020;-90
2023/08/20 05:04:47;;;;;;;10.82;9.73;;;;;;;21.05;100.00;98713.63;3215002;23;20449;-89
2023/08/20 05:06:03;;;;;;;11.55;10.10;;;;;;;21.07;100.00;98715.25;3214858;23;20028;-90
2023/08/20 05:07:20;;;;;;;12.40;10.52;;;;;;;21.18;100.00;98717.19;3213853;23;20020;-90
2023/08/20 05:08:36;;;;;;;11.27;9.52;;;;;;;21.09;100.00;98715.13;3214793;23;20024;-90
2023/08/20 05:09:51;;;;;;;11.77;9.13;;;;;;;21.13;100.00;98706.84;3214762;23;20032;-89
2023/08/20 05:11:09;;;;;;;12.75;9.20;;;;;;;21.18;100.00;98711.84;3215289;23;20020;-90
2023/08/20 05:12:25;;;;;;;12.38;9.32;;;;;;;21.20;100.00;98719.75;3210341;23;20464;-91
2023/08/20 05:13:41;;;;;;;14.35;10.07;;;;;;;21.24;100.00;98724.78;3214884;23;20079;-91
2023/08/20 05:14:56;;;;;;;10.02;8.75;;;;;;;21.19;100.00;98718.88;3215370;23;20031;-90
2023/08/20 05:16:12;;;;;;;12.52;10.13;;;;;;;21.33;100.00;98725.94;3215634;23;20016;-90
2023/08/20 05:17:27;;;;;;;13.32;10.02;;;;;;;21.33;100.00;98723.28;3215640;23;20024;-90
2023/08/20 05:18:43;;;;;;;12.40;10.23;;;;;;;21.36;100.00;98727.53;3199192;23;20029;-90
2023/08/20 05:19:58;;;;;;;11.60;9.80;;;;;;;21.35;100.00;98726.69;3200388;23;20020;-90
2023/08/20 05:21:14;;;;;;;11.25;9.85;;;;;;;21.38;100.00;98731.81;3216000;23;20026;-90
2023/08/20 05:22:29;;;;;;;11.07;9.57;;;;;;;21.45;100.00;98729.56;3215883;23;20082;-90
2023/08/20 05:23:45;;;;;;;11.38;9.35;;;;;;;21.49;100.00;98725.72;3215979;23;20028;-90
2023/08/20 05:25:01;;;;;;;11.25;10.13;;;;;;;21.43;100.00;98729.66;3215812;23;20017;-90
2023/08/20 05:26:16;;;;;;;11.98;9.95;;;;;;;21.47;100.00;98735.66;3215523;23;20382;-90
2023/08/20 05:27:32;;;;;;;11.38;9.82;;;;;;;21.52;100.00;98741.53;3215842;23;20499;-90
2023/08/20 05:28:47;;;;;;;12.95;9.02;;;;;;;21.48;100.00;98731.19;3215456;23;20515;-90
2023/08/20 05:30:08;;;;;;;13.18;9.55;;;;;;;21.39;100.00;98740.66;3199211;23;20029;-90
2023/08/20 05:31:23;;;;;;;13.70;9.52;;;;;;;21.48;100.00;98740.00;3201750;23;20025;-90
2023/08/20 05:32:39;;;;;;;11.43;9.43;;;;;;;21.61;100.00;98736.50;3216008;23;20505;-91
2023/08/20 05:33:55;;;;;;;10.30;9.18;;;;;;;21.55;100.00;98743.97;3199246;23;20369;-89
2023/08/20 05:35:10;;;;;;;12.32;9.57;;;;;;;21.66;100.00;98747.75;3206076;23;20074;-90
2023/08/20 05:36:25;;;;;;;12.68;9.55;;;;;;;21.69;100.00;98742.22;3222725;23;20012;-90
2023/08/20 05:37:41;;;;;;;11.38;8.55;;;;;;;21.62;100.00;98744.41;3224330;23;20031;-89
2023/08/20 05:38:57;;;;;;;10.80;8.95;;;;;;;21.61;100.00;98747.16;3219362;23;20075;-90
2023/08/20 05:40:12;;;;;;;17.00;9.80;;;;;;;21.83;100.00;98749.22;3216010;23;20071;-90
2023/08/20 05:41:28;;;;;;;14.15;9.45;;;;;;;21.92;100.00;98750.38;3211105;23;20016;-90
2023/08/20 05:42:43;;;;;;;13.30;9.02;;;;;;;21.97;100.00;98754.44;3210324;23;20071;-90
2023/08/20 05:44:01;;;;;;;11.27;8.63;;;;;;;21.85;100.00;98750.84;3199248;23;20031;-91
2023/08/20 05:45:17;;;;;;;10.85;8.93;;;;;;;21.86;100.00;98757.88;3190822;23;20056;-90
2023/08/20 05:46:32;;;;;;;13.23;8.73;;;;;;;21.82;100.00;98751.06;3201219;23;20337;-90
2023/08/20 05:47:48;;;;;;;11.43;8.88;;;;;;;21.75;100.00;98757.75;3210306;23;20028;-90
2023/08/20 05:49:04;;;;;;;13.30;8.73;;;;;;;21.76;100.00;98755.97;3198860;23;20431;-89
2023/08/20 05:50:19;;;;;;;10.65;9.25;;;;;;;21.83;100.00;98757.22;3189711;23;20032;-89
2023/08/20 05:51:35;;;;;;;13.27;8.88;;;;;;;21.89;100.00;98759.47;3205234;23;20085;-90
2023/08/20 05:52:50;;;;;;;10.20;9.05;;;;;;;21.88;100.00;98752.44;3199155;23;20757;-89